sensor_id;sensor_type;location;lat;lon;timestamp;temperature;humidity
29431;DHT22;16404;49.902;10.074;2022-11-11T00:00:06;9.30;64.80
29431;DHT22;16404;49.902;10.074;2022-11-11T00:03:09;9.30;65.30
29431;DHT22;16404;49.902;10.074;2022-11-11T00:06:14;9.20;65.60
29431;DHT22;16404;49.902;10.074;2022-11-11T00:09:19;9.20;65.70
29431;DHT22;16404;49.902;10.074;2022-11-11T00:12:22;9.10;65.90
29431;DHT22;16404;49.902;10.074;2022-11-11T00:15:25;9.10;66.00
29431;DHT22;16404;49.902;10.074;2022-11-11T00:18:29;9.10;66.00
29431;DHT22;16404;49.902;10.074;2022-11-11T00:21:51;9.10;66.00
29431;DHT22;16404;49.902;10.074;2022-11-11T00:25:16;9.10;65.80
29431;DHT22;16404;49.902;10.074;2022-11-11T00:28:20;9.10;65.90
29431;DHT22;16404;49.902;10.074;2022-11-11T00:31:23;9.10;65.70
29431;DHT22;16404;49.902;10.074;2022-11-11T00:34:27;9.00;65.60
29431;DHT22;16404;49.902;10.074;2022-11-11T00:37:34;9.00;65.60
29431;DHT22;16404;49.902;10.074;2022-11-11T00:40:37;9.00;65.40
29431;DHT22;16404;49.902;10.074;2022-11-11T00:43:42;9.00;65.40
29431;DHT22;16404;49.902;10.074;2022-11-11T00:46:45;8.90;65.30
29431;DHT22;16404;49.902;10.074;2022-11-11T00:50:15;8.90;65.30
29431;DHT22;16404;49.902;10.074;2022-11-11T00:53:37;8.90;65.20
29431;DHT22;16404;49.902;10.074;2022-11-11T00:56:42;8.90;65.10
29431;DHT22;16404;49.902;10.074;2022-11-11T00:59:45;8.90;65.10
29431;DHT22;16404;49.902;10.074;2022-11-11T01:02:49;8.80;65.10
29431;DHT22;16404;49.902;10.074;2022-11-11T01:05:52;8.80;65.40
29431;DHT22;16404;49.902;10.074;2022-11-11T01:08:55;8.80;65.50
29431;DHT22;16404;49.902;10.074;2022-11-11T01:11:58;8.80;65.60
29431;DHT22;16404;49.902;10.074;2022-11-11T01:15:01;8.80;65.60
29431;DHT22;16404;49.902;10.074;2022-11-11T01:18:06;8.70;66.20
29431;DHT22;16404;49.902;10.074;2022-11-11T01:21:21;8.70;65.60
29431;DHT22;16404;49.902;10.074;2022-11-11T01:24:25;8.70;65.60
29431;DHT22;16404;49.902;10.074;2022-11-11T01:27:28;8.70;65.60
29431;DHT22;16404;49.902;10.074;2022-11-11T01:30:32;8.60;65.70
29431;DHT22;16404;49.902;10.074;2022-11-11T01:33:37;8.60;65.80
29431;DHT22;16404;49.902;10.074;2022-11-11T01:36:40;8.60;65.90
29431;DHT22;16404;49.902;10.074;2022-11-11T01:39:44;8.50;65.90
29431;DHT22;16404;49.902;10.074;2022-11-11T01:45:57;8.50;65.90
29431;DHT22;16404;49.902;10.074;2022-11-11T01:52:33;8.40;66.00
29431;DHT22;16404;49.902;10.074;2022-11-11T01:55:38;8.40;66.00
29431;DHT22;16404;49.902;10.074;2022-11-11T01:58:41;8.40;66.10
29431;DHT22;16404;49.902;10.074;2022-11-11T02:01:45;8.30;66.30
29431;DHT22;16404;49.902;10.074;2022-11-11T02:04:50;8.30;66.50
29431;DHT22;16404;49.902;10.074;2022-11-11T02:08:18;8.30;66.40
29431;DHT22;16404;49.902;10.074;2022-11-11T02:11:37;8.20;66.50
29431;DHT22;16404;49.902;10.074;2022-11-11T02:15:01;8.20;66.60
29431;DHT22;16404;49.902;10.074;2022-11-11T02:18:05;8.20;66.60
29431;DHT22;16404;49.902;10.074;2022-11-11T02:21:15;8.20;66.60
29431;DHT22;16404;49.902;10.074;2022-11-11T02:24:22;8.20;66.70
29431;DHT22;16404;49.902;10.074;2022-11-11T02:27:28;8.20;66.70
29431;DHT22;16404;49.902;10.074;2022-11-11T02:30:33;8.20;66.70
29431;DHT22;16404;49.902;10.074;2022-11-11T02:33:36;8.20;66.70
29431;DHT22;16404;49.902;10.074;2022-11-11T02:36:41;8.20;66.70
29431;DHT22;16404;49.902;10.074;2022-11-11T02:39:47;8.20;66.80
29431;DHT22;16404;49.902;10.074;2022-11-11T02:42:52;8.20;66.90
29431;DHT22;16404;49.902;10.074;2022-11-11T02:45:55;8.10;66.90
29431;DHT22;16404;49.902;10.074;2022-11-11T02:48:59;8.10;67.10
29431;DHT22;16404;49.902;10.074;2022-11-11T02:52:03;8.10;67.20
29431;DHT22;16404;49.902;10.074;2022-11-11T02:55:06;8.10;67.20
29431;DHT22;16404;49.902;10.074;2022-11-11T02:58:10;8.00;67.20
29431;DHT22;16404;49.902;10.074;2022-11-11T03:01:14;8.00;67.50
29431;DHT22;16404;49.902;10.074;2022-11-11T03:04:21;8.00;67.40
29431;DHT22;16404;49.902;10.074;2022-11-11T03:07:25;8.00;67.30
29431;DHT22;16404;49.902;10.074;2022-11-11T03:10:29;8.00;67.30
29431;DHT22;16404;49.902;10.074;2022-11-11T03:13:32;8.00;67.30
29431;DHT22;16404;49.902;10.074;2022-11-11T03:16:35;7.90;67.40
29431;DHT22;16404;49.902;10.074;2022-11-11T03:19:58;7.90;67.30
29431;DHT22;16404;49.902;10.074;2022-11-11T03:23:21;7.90;67.30
29431;DHT22;16404;49.902;10.074;2022-11-11T03:26:25;7.80;67.70
29431;DHT22;16404;49.902;10.074;2022-11-11T03:29:28;7.80;67.70
29431;DHT22;16404;49.902;10.074;2022-11-11T03:32:31;7.80;67.90
29431;DHT22;16404;49.902;10.074;2022-11-11T03:35:35;7.80;67.80
29431;DHT22;16404;49.902;10.074;2022-11-11T03:38:38;7.80;67.80
29431;DHT22;16404;49.902;10.074;2022-11-11T03:41:41;7.90;67.70
29431;DHT22;16404;49.902;10.074;2022-11-11T03:44:45;7.90;67.60
29431;DHT22;16404;49.902;10.074;2022-11-11T03:47:49;7.90;68.30
29431;DHT22;16404;49.902;10.074;2022-11-11T03:50:52;7.90;67.80
29431;DHT22;16404;49.902;10.074;2022-11-11T03:53:56;7.90;67.80
29431;DHT22;16404;49.902;10.074;2022-11-11T03:56:59;7.90;67.70
29431;DHT22;16404;49.902;10.074;2022-11-11T04:00:24;7.90;67.60
29431;DHT22;16404;49.902;10.074;2022-11-11T04:03:27;7.90;67.60
29431;DHT22;16404;49.902;10.074;2022-11-11T04:06:50;7.90;67.60
29431;DHT22;16404;49.902;10.074;2022-11-11T04:10:12;7.80;67.70
29431;DHT22;16404;49.902;10.074;2022-11-11T04:13:28;7.90;67.80
29431;DHT22;16404;49.902;10.074;2022-11-11T04:16:52;7.90;67.80
29431;DHT22;16404;49.902;10.074;2022-11-11T04:19:55;7.80;67.70
29431;DHT22;16404;49.902;10.074;2022-11-11T04:23:17;7.80;67.80
29431;DHT22;16404;49.902;10.074;2022-11-11T04:26:20;7.80;67.70
29431;DHT22;16404;49.902;10.074;2022-11-11T04:29:24;7.80;67.80
29431;DHT22;16404;49.902;10.074;2022-11-11T04:32:31;7.80;67.90
29431;DHT22;16404;49.902;10.074;2022-11-11T04:35:48;7.70;68.10
29431;DHT22;16404;49.902;10.074;2022-11-11T04:38:52;7.70;68.30
29431;DHT22;16404;49.902;10.074;2022-11-11T04:42:14;7.70;68.30
29431;DHT22;16404;49.902;10.074;2022-11-11T04:45:17;7.70;68.30
29431;DHT22;16404;49.902;10.074;2022-11-11T04:48:30;7.70;68.20
29431;DHT22;16404;49.902;10.074;2022-11-11T04:51:33;7.70;68.20
29431;DHT22;16404;49.902;10.074;2022-11-11T04:54:57;7.70;68.10
29431;DHT22;16404;49.902;10.074;2022-11-11T04:58:33;7.80;68.00
29431;DHT22;16404;49.902;10.074;2022-11-11T05:01:37;7.70;68.10
29431;DHT22;16404;49.902;10.074;2022-11-11T05:04:59;7.70;68.30
29431;DHT22;16404;49.902;10.074;2022-11-11T05:08:02;7.70;68.20
29431;DHT22;16404;49.902;10.074;2022-11-11T05:11:27;7.70;68.40
29431;DHT22;16404;49.902;10.074;2022-11-11T05:14:30;7.70;68.30
29431;DHT22;16404;49.902;10.074;2022-11-11T05:17:52;7.70;68.20
29431;DHT22;16404;49.902;10.074;2022-11-11T05:21:24;7.70;68.20
29431;DHT22;16404;49.902;10.074;2022-11-11T05:24:29;7.70;68.20
29431;DHT22;16404;49.902;10.074;2022-11-11T05:27:53;7.70;68.00
29431;DHT22;16404;49.902;10.074;2022-11-11T05:30:57;7.70;68.00
29431;DHT22;16404;49.902;10.074;2022-11-11T05:34:00;7.70;68.00
29431;DHT22;16404;49.902;10.074;2022-11-11T05:37:03;7.70;68.10
29431;DHT22;16404;49.902;10.074;2022-11-11T05:40:07;7.70;68.00
29431;DHT22;16404;49.902;10.074;2022-11-11T05:43:10;7.70;67.90
29431;DHT22;16404;49.902;10.074;2022-11-11T05:46:14;7.70;67.70
29431;DHT22;16404;49.902;10.074;2022-11-11T05:49:17;7.70;67.70
29431;DHT22;16404;49.902;10.074;2022-11-11T05:52:20;7.70;67.70
29431;DHT22;16404;49.902;10.074;2022-11-11T05:55:24;7.70;67.70
29431;DHT22;16404;49.902;10.074;2022-11-11T05:58:28;7.70;67.70
29431;DHT22;16404;49.902;10.074;2022-11-11T06:01:31;7.70;67.60
29431;DHT22;16404;49.902;10.074;2022-11-11T06:04:34;7.70;67.70
29431;DHT22;16404;49.902;10.074;2022-11-11T06:07:38;7.70;67.90
29431;DHT22;16404;49.902;10.074;2022-11-11T06:10:45;7.70;67.90
29431;DHT22;16404;49.902;10.074;2022-11-11T06:13:49;7.60;68.10
29431;DHT22;16404;49.902;10.074;2022-11-11T06:16:52;7.60;68.30
29431;DHT22;16404;49.902;10.074;2022-11-11T06:19:56;7.60;68.40
29431;DHT22;16404;49.902;10.074;2022-11-11T06:22:59;7.60;68.50
29431;DHT22;16404;49.902;10.074;2022-11-11T06:26:03;7.50;69.30
29431;DHT22;16404;49.902;10.074;2022-11-11T06:29:16;7.50;68.60
29431;DHT22;16404;49.902;10.074;2022-11-11T06:32:19;7.60;68.60
29431;DHT22;16404;49.902;10.074;2022-11-11T06:35:22;7.60;68.60
29431;DHT22;16404;49.902;10.074;2022-11-11T06:38:26;7.60;68.70
29431;DHT22;16404;49.902;10.074;2022-11-11T06:41:29;7.70;68.70
29431;DHT22;16404;49.902;10.074;2022-11-11T06:44:33;7.60;68.70
29431;DHT22;16404;49.902;10.074;2022-11-11T06:47:37;7.60;68.80
29431;DHT22;16404;49.902;10.074;2022-11-11T06:50:40;7.60;69.00
29431;DHT22;16404;49.902;10.074;2022-11-11T06:53:44;7.60;69.10
29431;DHT22;16404;49.902;10.074;2022-11-11T06:56:47;7.70;69.20
29431;DHT22;16404;49.902;10.074;2022-11-11T06:59:51;7.80;69.10
29431;DHT22;16404;49.902;10.074;2022-11-11T07:02:55;7.90;69.00
29431;DHT22;16404;49.902;10.074;2022-11-11T07:06:03;7.90;68.90
29431;DHT22;16404;49.902;10.074;2022-11-11T07:09:07;7.90;69.10
29431;DHT22;16404;49.902;10.074;2022-11-11T07:12:10;7.90;69.00
29431;DHT22;16404;49.902;10.074;2022-11-11T07:15:13;8.00;69.30
29431;DHT22;16404;49.902;10.074;2022-11-11T07:18:17;8.00;69.50
29431;DHT22;16404;49.902;10.074;2022-11-11T07:21:21;8.10;69.40
29431;DHT22;16404;49.902;10.074;2022-11-11T07:24:24;8.10;69.60
29431;DHT22;16404;49.902;10.074;2022-11-11T07:27:27;8.10;69.70
29431;DHT22;16404;49.902;10.074;2022-11-11T07:30:31;8.20;69.70
29431;DHT22;16404;49.902;10.074;2022-11-11T07:33:35;8.30;69.90
29431;DHT22;16404;49.902;10.074;2022-11-11T07:36:38;8.30;69.90
29431;DHT22;16404;49.902;10.074;2022-11-11T07:39:41;8.30;70.40
29431;DHT22;16404;49.902;10.074;2022-11-11T07:42:45;8.40;70.80
29431;DHT22;16404;49.902;10.074;2022-11-11T07:45:48;8.50;70.70
29431;DHT22;16404;49.902;10.074;2022-11-11T07:48:52;8.60;70.70
29431;DHT22;16404;49.902;10.074;2022-11-11T07:51:56;8.70;70.70
29431;DHT22;16404;49.902;10.074;2022-11-11T07:54:59;8.80;71.00
29431;DHT22;16404;49.902;10.074;2022-11-11T07:58:03;8.80;71.00
29431;DHT22;16404;49.902;10.074;2022-11-11T08:01:07;9.00;71.00
29431;DHT22;16404;49.902;10.074;2022-11-11T08:04:13;9.10;70.80
29431;DHT22;16404;49.902;10.074;2022-11-11T08:07:16;9.30;70.60
29431;DHT22;16404;49.902;10.074;2022-11-11T08:10:20;9.40;70.50
29431;DHT22;16404;49.902;10.074;2022-11-11T08:13:24;9.50;70.50
29431;DHT22;16404;49.902;10.074;2022-11-11T08:16:42;9.60;70.40
29431;DHT22;16404;49.902;10.074;2022-11-11T08:19:46;9.70;70.00
29431;DHT22;16404;49.902;10.074;2022-11-11T08:22:49;9.80;69.80
29431;DHT22;16404;49.902;10.074;2022-11-11T08:26:02;9.90;69.80
29431;DHT22;16404;49.902;10.074;2022-11-11T08:29:05;10.00;69.70
29431;DHT22;16404;49.902;10.074;2022-11-11T08:32:09;10.10;69.60
29431;DHT22;16404;49.902;10.074;2022-11-11T08:35:13;10.20;69.60
29431;DHT22;16404;49.902;10.074;2022-11-11T08:38:16;10.30;69.60
29431;DHT22;16404;49.902;10.074;2022-11-11T08:41:20;10.40;69.60
29431;DHT22;16404;49.902;10.074;2022-11-11T08:44:25;10.50;69.50
29431;DHT22;16404;49.902;10.074;2022-11-11T08:47:29;10.60;69.40
29431;DHT22;16404;49.902;10.074;2022-11-11T08:50:32;10.60;69.40
29431;DHT22;16404;49.902;10.074;2022-11-11T08:53:36;10.70;70.20
29431;DHT22;16404;49.902;10.074;2022-11-11T08:56:40;10.80;69.20
29431;DHT22;16404;49.902;10.074;2022-11-11T08:59:44;10.80;69.10
29431;DHT22;16404;49.902;10.074;2022-11-11T09:02:47;10.80;69.10
29431;DHT22;16404;49.902;10.074;2022-11-11T09:05:50;10.90;69.10
29431;DHT22;16404;49.902;10.074;2022-11-11T09:08:53;10.90;69.10
29431;DHT22;16404;49.902;10.074;2022-11-11T09:11:57;10.90;69.20
29431;DHT22;16404;49.902;10.074;2022-11-11T09:15:00;10.90;69.20
29431;DHT22;16404;49.902;10.074;2022-11-11T09:18:04;11.00;69.20
29431;DHT22;16404;49.902;10.074;2022-11-11T09:21:08;11.10;69.40
29431;DHT22;16404;49.902;10.074;2022-11-11T09:24:12;11.10;69.40
29431;DHT22;16404;49.902;10.074;2022-11-11T09:27:15;11.20;69.40
29431;DHT22;16404;49.902;10.074;2022-11-11T09:30:18;11.30;69.30
29431;DHT22;16404;49.902;10.074;2022-11-11T09:33:21;11.30;68.80
29431;DHT22;16404;49.902;10.074;2022-11-11T09:36:24;11.40;68.60
29431;DHT22;16404;49.902;10.074;2022-11-11T09:39:28;11.50;68.70
29431;DHT22;16404;49.902;10.074;2022-11-11T09:42:44;11.50;68.70
29431;DHT22;16404;49.902;10.074;2022-11-11T09:52:37;11.50;69.10
29431;DHT22;16404;49.902;10.074;2022-11-11T09:55:46;11.60;69.10
29431;DHT22;16404;49.902;10.074;2022-11-11T10:02:03;11.80;68.80
29431;DHT22;16404;49.902;10.074;2022-11-11T10:05:16;11.90;68.70
29431;DHT22;16404;49.902;10.074;2022-11-11T10:08:27;12.00;68.50
29431;DHT22;16404;49.902;10.074;2022-11-11T10:14:40;12.10;68.30
29431;DHT22;16404;49.902;10.074;2022-11-11T10:21:06;12.20;68.00
29431;DHT22;16404;49.902;10.074;2022-11-11T10:24:20;12.30;67.80
29431;DHT22;16404;49.902;10.074;2022-11-11T10:27:24;12.30;67.50
29431;DHT22;16404;49.902;10.074;2022-11-11T10:30:30;12.30;67.60
29431;DHT22;16404;49.902;10.074;2022-11-11T10:33:54;12.40;67.70
29431;DHT22;16404;49.902;10.074;2022-11-11T10:37:00;12.40;67.70
29431;DHT22;16404;49.902;10.074;2022-11-11T10:40:21;12.50;67.40
29431;DHT22;16404;49.902;10.074;2022-11-11T10:43:28;12.50;68.10
29431;DHT22;16404;49.902;10.074;2022-11-11T10:46:41;12.60;68.40
29431;DHT22;16404;49.902;10.074;2022-11-11T10:49:59;12.50;69.00
29431;DHT22;16404;49.902;10.074;2022-11-11T11:00:15;12.80;68.40
29431;DHT22;16404;49.902;10.074;2022-11-11T11:03:23;12.90;68.10
29431;DHT22;16404;49.902;10.074;2022-11-11T11:06:31;13.00;68.00
29431;DHT22;16404;49.902;10.074;2022-11-11T11:10:07;13.10;67.90
29431;DHT22;16404;49.902;10.074;2022-11-11T11:13:20;13.10;68.10
29431;DHT22;16404;49.902;10.074;2022-11-11T11:16:49;13.20;68.30
29431;DHT22;16404;49.902;10.074;2022-11-11T11:20:12;13.20;68.80
29431;DHT22;16404;49.902;10.074;2022-11-11T11:23:34;13.30;68.40
29431;DHT22;16404;49.902;10.074;2022-11-11T11:26:43;13.40;68.70
29431;DHT22;16404;49.902;10.074;2022-11-11T11:29:46;13.50;68.50
29431;DHT22;16404;49.902;10.074;2022-11-11T11:33:01;13.50;68.40
29431;DHT22;16404;49.902;10.074;2022-11-11T11:36:15;13.50;68.50
29431;DHT22;16404;49.902;10.074;2022-11-11T11:39:34;13.60;68.30
29431;DHT22;16404;49.902;10.074;2022-11-11T11:42:38;13.60;67.80
29431;DHT22;16404;49.902;10.074;2022-11-11T11:45:41;13.60;67.80
29431;DHT22;16404;49.902;10.074;2022-11-11T11:55:31;13.80;68.00
29431;DHT22;16404;49.902;10.074;2022-11-11T12:01:50;13.90;67.60
29431;DHT22;16404;49.902;10.074;2022-11-11T12:05:25;13.90;67.70
29431;DHT22;16404;49.902;10.074;2022-11-11T12:15:22;14.00;67.20
29431;DHT22;16404;49.902;10.074;2022-11-11T12:18:49;14.00;67.10
29431;DHT22;16404;49.902;10.074;2022-11-11T12:25:19;14.00;67.30
29431;DHT22;16404;49.902;10.074;2022-11-11T12:39:01;14.20;67.00
29431;DHT22;16404;49.902;10.074;2022-11-11T12:42:41;14.20;66.90
29431;DHT22;16404;49.902;10.074;2022-11-11T12:45:47;14.10;66.80
29431;DHT22;16404;49.902;10.074;2022-11-11T12:48:53;14.30;66.80
29431;DHT22;16404;49.902;10.074;2022-11-11T12:55:39;14.40;66.50
29431;DHT22;16404;49.902;10.074;2022-11-11T12:58:59;14.50;65.80
29431;DHT22;16404;49.902;10.074;2022-11-11T13:05:42;14.60;66.00
29431;DHT22;16404;49.902;10.074;2022-11-11T13:12:18;14.70;65.90
29431;DHT22;16404;49.902;10.074;2022-11-11T13:15:25;14.90;65.70
29431;DHT22;16404;49.902;10.074;2022-11-11T13:18:47;14.90;65.10
29431;DHT22;16404;49.902;10.074;2022-11-11T13:21:56;14.90;65.30
29431;DHT22;16404;49.902;10.074;2022-11-11T13:25:06;14.90;64.90
29431;DHT22;16404;49.902;10.074;2022-11-11T13:28:36;14.90;64.80
29431;DHT22;16404;49.902;10.074;2022-11-11T13:31:41;14.90;64.90
29431;DHT22;16404;49.902;10.074;2022-11-11T13:34:46;14.90;64.90
29431;DHT22;16404;49.902;10.074;2022-11-11T13:37:49;14.90;64.90
29431;DHT22;16404;49.902;10.074;2022-11-11T13:40:54;14.90;64.80
29431;DHT22;16404;49.902;10.074;2022-11-11T13:44:05;14.90;64.80
29431;DHT22;16404;49.902;10.074;2022-11-11T13:47:18;14.90;65.00
29431;DHT22;16404;49.902;10.074;2022-11-11T13:50:28;14.90;64.80
29431;DHT22;16404;49.902;10.074;2022-11-11T13:53:35;14.90;64.60
29431;DHT22;16404;49.902;10.074;2022-11-11T13:56:42;14.80;64.80
29431;DHT22;16404;49.902;10.074;2022-11-11T14:06:34;14.70;65.10
29431;DHT22;16404;49.902;10.074;2022-11-11T14:12:56;14.50;65.60
29431;DHT22;16404;49.902;10.074;2022-11-11T14:16:09;14.50;65.60
29431;DHT22;16404;49.902;10.074;2022-11-11T14:22:32;14.50;65.70
29431;DHT22;16404;49.902;10.074;2022-11-11T14:25:36;14.40;65.60
29431;DHT22;16404;49.902;10.074;2022-11-11T14:28:59;14.40;65.50
29431;DHT22;16404;49.902;10.074;2022-11-11T14:48:58;14.00;65.90
29431;DHT22;16404;49.902;10.074;2022-11-11T14:52:02;13.90;66.10
29431;DHT22;16404;49.902;10.074;2022-11-11T14:55:29;13.90;66.10
29431;DHT22;16404;49.902;10.074;2022-11-11T14:58:34;13.80;66.00
29431;DHT22;16404;49.902;10.074;2022-11-11T15:01:37;13.80;66.00
29431;DHT22;16404;49.902;10.074;2022-11-11T15:04:40;13.80;66.00
29431;DHT22;16404;49.902;10.074;2022-11-11T15:08:02;13.70;66.10
29431;DHT22;16404;49.902;10.074;2022-11-11T15:14:52;13.60;66.30
29431;DHT22;16404;49.902;10.074;2022-11-11T15:21:24;13.60;66.10
29431;DHT22;16404;49.902;10.074;2022-11-11T15:25:00;13.40;66.10
29431;DHT22;16404;49.902;10.074;2022-11-11T15:31:36;13.30;66.20
29431;DHT22;16404;49.902;10.074;2022-11-11T15:35:03;13.20;66.10
29431;DHT22;16404;49.902;10.074;2022-11-11T15:38:13;13.20;66.00
29431;DHT22;16404;49.902;10.074;2022-11-11T15:41:25;13.10;65.80
29431;DHT22;16404;49.902;10.074;2022-11-11T15:44:31;13.00;65.70
29431;DHT22;16404;49.902;10.074;2022-11-11T15:47:36;12.90;65.70
29431;DHT22;16404;49.902;10.074;2022-11-11T15:50:41;12.80;65.70
29431;DHT22;16404;49.902;10.074;2022-11-11T15:53:44;12.70;65.90
29431;DHT22;16404;49.902;10.074;2022-11-11T15:56:47;12.60;65.90
29431;DHT22;16404;49.902;10.074;2022-11-11T15:59:53;12.50;65.90
29431;DHT22;16404;49.902;10.074;2022-11-11T16:02:57;12.40;65.80
29431;DHT22;16404;49.902;10.074;2022-11-11T16:06:03;12.30;65.80
29431;DHT22;16404;49.902;10.074;2022-11-11T16:09:10;12.20;65.80
29431;DHT22;16404;49.902;10.074;2022-11-11T16:12:22;12.10;65.70
29431;DHT22;16404;49.902;10.074;2022-11-11T16:15:42;12.00;65.70
29431;DHT22;16404;49.902;10.074;2022-11-11T16:19:03;11.90;65.70
29431;DHT22;16404;49.902;10.074;2022-11-11T16:22:13;11.80;65.80
29431;DHT22;16404;49.902;10.074;2022-11-11T16:25:21;11.80;65.80
29431;DHT22;16404;49.902;10.074;2022-11-11T16:28:26;11.70;65.80
29431;DHT22;16404;49.902;10.074;2022-11-11T16:34:41;11.50;65.80
29431;DHT22;16404;49.902;10.074;2022-11-11T16:37:53;11.40;65.80
29431;DHT22;16404;49.902;10.074;2022-11-11T16:40:57;11.40;65.70
29431;DHT22;16404;49.902;10.074;2022-11-11T16:44:00;11.40;65.70
29431;DHT22;16404;49.902;10.074;2022-11-11T16:47:04;11.30;65.60
29431;DHT22;16404;49.902;10.074;2022-11-11T16:50:18;11.20;65.60
29431;DHT22;16404;49.902;10.074;2022-11-11T16:53:30;11.10;65.60
29431;DHT22;16404;49.902;10.074;2022-11-11T16:56:36;11.10;65.60
29431;DHT22;16404;49.902;10.074;2022-11-11T16:59:50;11.00;65.70
29431;DHT22;16404;49.902;10.074;2022-11-11T17:03:23;10.90;65.80
29431;DHT22;16404;49.902;10.074;2022-11-11T17:06:53;10.80;66.00
29431;DHT22;16404;49.902;10.074;2022-11-11T17:10:10;10.70;66.00
29431;DHT22;16404;49.902;10.074;2022-11-11T17:13:15;10.70;66.20
29431;DHT22;16404;49.902;10.074;2022-11-11T17:16:18;10.70;66.10
29431;DHT22;16404;49.902;10.074;2022-11-11T17:19:21;10.60;66.00
29431;DHT22;16404;49.902;10.074;2022-11-11T17:22:25;10.60;66.00
29431;DHT22;16404;49.902;10.074;2022-11-11T17:25:28;10.60;66.10
29431;DHT22;16404;49.902;10.074;2022-11-11T17:28:33;10.50;66.10
29431;DHT22;16404;49.902;10.074;2022-11-11T17:31:37;10.40;66.00
29431;DHT22;16404;49.902;10.074;2022-11-11T17:34:40;10.40;66.00
29431;DHT22;16404;49.902;10.074;2022-11-11T17:37:44;10.40;65.80
29431;DHT22;16404;49.902;10.074;2022-11-11T17:40:48;10.30;66.10
29431;DHT22;16404;49.902;10.074;2022-11-11T17:43:51;10.10;66.40
29431;DHT22;16404;49.902;10.074;2022-11-11T17:46:54;10.00;66.90
29431;DHT22;16404;49.902;10.074;2022-11-11T17:49:58;9.90;67.20
29431;DHT22;16404;49.902;10.074;2022-11-11T17:53:03;9.90;67.50
29431;DHT22;16404;49.902;10.074;2022-11-11T17:56:07;9.90;67.70
29431;DHT22;16404;49.902;10.074;2022-11-11T17:59:12;9.80;68.00
29431;DHT22;16404;49.902;10.074;2022-11-11T18:02:15;9.80;68.10
29431;DHT22;16404;49.902;10.074;2022-11-11T18:05:19;9.90;68.20
29431;DHT22;16404;49.902;10.074;2022-11-11T18:08:23;9.80;68.20
29431;DHT22;16404;49.902;10.074;2022-11-11T18:11:25;9.80;68.40
29431;DHT22;16404;49.902;10.074;2022-11-11T18:14:29;9.80;68.50
29431;DHT22;16404;49.902;10.074;2022-11-11T18:17:32;9.70;68.50
29431;DHT22;16404;49.902;10.074;2022-11-11T18:20:36;9.70;68.80
29431;DHT22;16404;49.902;10.074;2022-11-11T18:23:40;9.80;68.80
29431;DHT22;16404;49.902;10.074;2022-11-11T18:26:43;9.80;68.90
29431;DHT22;16404;49.902;10.074;2022-11-11T18:29:46;9.90;68.60
29431;DHT22;16404;49.902;10.074;2022-11-11T18:32:50;9.90;68.50
29431;DHT22;16404;49.902;10.074;2022-11-11T18:35:53;9.90;68.80
29431;DHT22;16404;49.902;10.074;2022-11-11T18:38:56;9.80;68.90
29431;DHT22;16404;49.902;10.074;2022-11-11T18:42:00;9.90;69.60
29431;DHT22;16404;49.902;10.074;2022-11-11T18:45:04;9.90;68.90
29431;DHT22;16404;49.902;10.074;2022-11-11T18:48:07;9.90;68.80
29431;DHT22;16404;49.902;10.074;2022-11-11T18:51:14;9.90;68.70
29431;DHT22;16404;49.902;10.074;2022-11-11T18:54:18;9.90;68.70
29431;DHT22;16404;49.902;10.074;2022-11-11T18:57:21;9.90;68.60
29431;DHT22;16404;49.902;10.074;2022-11-11T19:00:24;10.00;68.70
29431;DHT22;16404;49.902;10.074;2022-11-11T19:03:27;10.00;68.60
29431;DHT22;16404;49.902;10.074;2022-11-11T19:06:34;10.00;68.60
29431;DHT22;16404;49.902;10.074;2022-11-11T19:09:38;9.90;68.70
29431;DHT22;16404;49.902;10.074;2022-11-11T19:12:41;9.90;68.80
29431;DHT22;16404;49.902;10.074;2022-11-11T19:15:44;9.90;68.70
29431;DHT22;16404;49.902;10.074;2022-11-11T19:18:48;9.80;68.70
29431;DHT22;16404;49.902;10.074;2022-11-11T19:21:52;9.70;68.90
29431;DHT22;16404;49.902;10.074;2022-11-11T19:24:55;9.70;69.00
29431;DHT22;16404;49.902;10.074;2022-11-11T19:27:59;9.70;69.10
29431;DHT22;16404;49.902;10.074;2022-11-11T19:31:04;9.70;69.20
29431;DHT22;16404;49.902;10.074;2022-11-11T19:34:09;9.70;69.20
29431;DHT22;16404;49.902;10.074;2022-11-11T19:37:13;9.70;69.20
29431;DHT22;16404;49.902;10.074;2022-11-11T19:40:17;9.70;69.10
29431;DHT22;16404;49.902;10.074;2022-11-11T19:43:20;9.70;69.20
29431;DHT22;16404;49.902;10.074;2022-11-11T19:46:25;9.70;69.40
29431;DHT22;16404;49.902;10.074;2022-11-11T19:49:29;9.70;69.50
29431;DHT22;16404;49.902;10.074;2022-11-11T19:52:33;9.80;69.50
29431;DHT22;16404;49.902;10.074;2022-11-11T19:55:36;9.80;69.50
29431;DHT22;16404;49.902;10.074;2022-11-11T19:58:40;9.70;69.50
29431;DHT22;16404;49.902;10.074;2022-11-11T20:01:44;9.70;69.60
29431;DHT22;16404;49.902;10.074;2022-11-11T20:04:47;9.70;69.60
29431;DHT22;16404;49.902;10.074;2022-11-11T20:07:53;9.70;69.40
29431;DHT22;16404;49.902;10.074;2022-11-11T20:11:04;9.70;69.50
29431;DHT22;16404;49.902;10.074;2022-11-11T20:14:08;9.70;69.50
29431;DHT22;16404;49.902;10.074;2022-11-11T20:17:11;9.70;69.30
29431;DHT22;16404;49.902;10.074;2022-11-11T20:20:14;9.80;69.30
29431;DHT22;16404;49.902;10.074;2022-11-11T20:23:18;9.70;69.20
29431;DHT22;16404;49.902;10.074;2022-11-11T20:26:21;9.70;69.10
29431;DHT22;16404;49.902;10.074;2022-11-11T20:29:25;9.80;69.00
29431;DHT22;16404;49.902;10.074;2022-11-11T20:32:28;9.80;68.90
29431;DHT22;16404;49.902;10.074;2022-11-11T20:35:32;9.80;68.80
29431;DHT22;16404;49.902;10.074;2022-11-11T20:38:36;9.70;68.70
29431;DHT22;16404;49.902;10.074;2022-11-11T20:41:39;9.60;68.80
29431;DHT22;16404;49.902;10.074;2022-11-11T20:44:43;9.60;68.70
29431;DHT22;16404;49.902;10.074;2022-11-11T20:47:47;9.60;68.70
29431;DHT22;16404;49.902;10.074;2022-11-11T20:50:50;9.50;68.70
29431;DHT22;16404;49.902;10.074;2022-11-11T20:53:57;9.40;68.70
29431;DHT22;16404;49.902;10.074;2022-11-11T20:57:01;9.40;68.70
29431;DHT22;16404;49.902;10.074;2022-11-11T21:00:05;9.40;68.50
29431;DHT22;16404;49.902;10.074;2022-11-11T21:03:08;9.30;68.50
29431;DHT22;16404;49.902;10.074;2022-11-11T21:06:16;9.30;68.60
29431;DHT22;16404;49.902;10.074;2022-11-11T21:09:20;9.30;68.70
29431;DHT22;16404;49.902;10.074;2022-11-11T21:12:23;9.20;68.50
29431;DHT22;16404;49.902;10.074;2022-11-11T21:15:26;9.20;68.50
29431;DHT22;16404;49.902;10.074;2022-11-11T21:18:30;9.10;68.60
29431;DHT22;16404;49.902;10.074;2022-11-11T21:21:33;9.20;68.50
29431;DHT22;16404;49.902;10.074;2022-11-11T21:24:37;9.10;68.40
29431;DHT22;16404;49.902;10.074;2022-11-11T21:27:40;9.10;68.60
29431;DHT22;16404;49.902;10.074;2022-11-11T21:30:43;9.00;68.60